sensor_id;sensor_type;location;lat;lon;timestamp;temperature;humidity
23289;DHT22;11813;50.834;4.280;2023-06-10T00:01:24;24.40;99.90
23289;DHT22;11813;50.834;4.280;2023-06-10T00:03:50;24.40;99.90
23289;DHT22;11813;50.834;4.280;2023-06-10T00:06:17;24.30;99.90
23289;DHT22;11813;50.834;4.280;2023-06-10T00:08:43;24.30;99.90
23289;DHT22;11813;50.834;4.280;2023-06-10T00:11:08;24.30;99.90
23289;DHT22;11813;50.834;4.280;2023-06-10T00:13:34;24.10;99.90
23289;DHT22;11813;50.834;4.280;2023-06-10T00:16:00;24.20;99.90
23289;DHT22;11813;50.834;4.280;2023-06-10T00:18:25;24.20;99.90
23289;DHT22;11813;50.834;4.280;2023-06-10T00:20:52;24.20;99.90
23289;DHT22;11813;50.834;4.280;2023-06-10T00:23:21;24.00;99.90
23289;DHT22;11813;50.834;4.280;2023-06-10T00:25:46;24.00;99.90
23289;DHT22;11813;50.834;4.280;2023-06-10T00:28:12;23.90;99.90
23289;DHT22;11813;50.834;4.280;2023-06-10T00:30:38;23.90;99.90
23289;DHT22;11813;50.834;4.280;2023-06-10T00:33:04;23.90;99.90
23289;DHT22;11813;50.834;4.280;2023-06-10T00:35:30;23.90;99.90
23289;DHT22;11813;50.834;4.280;2023-06-10T00:37:55;23.90;99.90
23289;DHT22;11813;50.834;4.280;2023-06-10T00:40:21;23.90;99.90
23289;DHT22;11813;50.834;4.280;2023-06-10T00:42:47;23.80;99.90
23289;DHT22;11813;50.834;4.280;2023-06-10T00:45:13;23.90;99.90
23289;DHT22;11813;50.834;4.280;2023-06-10T00:47:39;23.90;99.90
23289;DHT22;11813;50.834;4.280;2023-06-10T00:50:06;23.90;99.90
23289;DHT22;11813;50.834;4.280;2023-06-10T00:52:33;23.80;99.90
23289;DHT22;11813;50.834;4.280;2023-06-10T00:54:59;23.90;99.90
23289;DHT22;11813;50.834;4.280;2023-06-10T00:57:25;23.80;99.90
23289;DHT22;11813;50.834;4.280;2023-06-10T00:59:52;23.80;99.90
23289;DHT22;11813;50.834;4.280;2023-06-10T01:02:17;23.80;99.90
23289;DHT22;11813;50.834;4.280;2023-06-10T01:04:43;23.80;99.90
23289;DHT22;11813;50.834;4.280;2023-06-10T01:07:14;23.70;99.90
23289;DHT22;11813;50.834;4.280;2023-06-10T01:10:02;23.60;99.90
23289;DHT22;11813;50.834;4.280;2023-06-10T01:15:20;23.60;99.90
23289;DHT22;11813;50.834;4.280;2023-06-10T01:17:58;23.60;99.90
23289;DHT22;11813;50.834;4.280;2023-06-10T01:20:26;23.60;99.90
23289;DHT22;11813;50.834;4.280;2023-06-10T01:22:56;23.50;99.90
23289;DHT22;11813;50.834;4.280;2023-06-10T01:25:23;23.50;99.90
23289;DHT22;11813;50.834;4.280;2023-06-10T01:27:55;23.60;99.90
23289;DHT22;11813;50.834;4.280;2023-06-10T01:30:27;23.50;99.90
23289;DHT22;11813;50.834;4.280;2023-06-10T01:32:55;23.30;99.90
23289;DHT22;11813;50.834;4.280;2023-06-10T01:35:24;23.40;99.90
23289;DHT22;11813;50.834;4.280;2023-06-10T01:37:53;23.30;99.90
23289;DHT22;11813;50.834;4.280;2023-06-10T01:40:20;23.30;99.90
23289;DHT22;11813;50.834;4.280;2023-06-10T01:42:46;23.30;99.90
23289;DHT22;11813;50.834;4.280;2023-06-10T01:45:12;23.30;99.90
23289;DHT22;11813;50.834;4.280;2023-06-10T01:47:37;23.30;99.90
23289;DHT22;11813;50.834;4.280;2023-06-10T01:50:03;23.20;99.90
23289;DHT22;11813;50.834;4.280;2023-06-10T01:52:29;23.20;99.90
23289;DHT22;11813;50.834;4.280;2023-06-10T01:54:54;23.30;99.90
23289;DHT22;11813;50.834;4.280;2023-06-10T01:57:20;23.30;99.90
23289;DHT22;11813;50.834;4.280;2023-06-10T01:59:45;23.10;99.90
23289;DHT22;11813;50.834;4.280;2023-06-10T02:02:11;23.10;99.90
23289;DHT22;11813;50.834;4.280;2023-06-10T02:04:37;23.10;99.90
23289;DHT22;11813;50.834;4.280;2023-06-10T02:07:03;23.20;99.90
23289;DHT22;11813;50.834;4.280;2023-06-10T02:09:30;23.10;99.90
23289;DHT22;11813;50.834;4.280;2023-06-10T02:11:56;23.10;99.90
23289;DHT22;11813;50.834;4.280;2023-06-10T02:14:22;23.10;99.90
23289;DHT22;11813;50.834;4.280;2023-06-10T02:16:47;23.10;99.90
23289;DHT22;11813;50.834;4.280;2023-06-10T02:19:14;23.10;99.90
23289;DHT22;11813;50.834;4.280;2023-06-10T02:21:39;23.00;99.90
23289;DHT22;11813;50.834;4.280;2023-06-10T02:24:05;22.80;99.90
23289;DHT22;11813;50.834;4.280;2023-06-10T02:26:31;22.80;99.90
23289;DHT22;11813;50.834;4.280;2023-06-10T02:28:57;22.80;99.90
23289;DHT22;11813;50.834;4.280;2023-06-10T02:31:22;22.80;99.90
23289;DHT22;11813;50.834;4.280;2023-06-10T02:33:49;22.90;99.90
23289;DHT22;11813;50.834;4.280;2023-06-10T02:36:15;22.80;99.90
23289;DHT22;11813;50.834;4.280;2023-06-10T02:38:41;22.80;99.90
23289;DHT22;11813;50.834;4.280;2023-06-10T02:41:06;22.80;99.90
23289;DHT22;11813;50.834;4.280;2023-06-10T02:43:32;22.80;99.90
23289;DHT22;11813;50.834;4.280;2023-06-10T02:45:58;22.80;99.90
23289;DHT22;11813;50.834;4.280;2023-06-10T02:48:27;22.70;99.90
23289;DHT22;11813;50.834;4.280;2023-06-10T02:50:53;22.70;99.90
23289;DHT22;11813;50.834;4.280;2023-06-10T02:53:18;22.70;99.90
23289;DHT22;11813;50.834;4.280;2023-06-10T02:55:44;22.60;99.90
23289;DHT22;11813;50.834;4.280;2023-06-10T02:58:10;22.60;99.90
23289;DHT22;11813;50.834;4.280;2023-06-10T03:00:35;22.50;99.90
23289;DHT22;11813;50.834;4.280;2023-06-10T03:03:03;22.40;99.90
23289;DHT22;11813;50.834;4.280;2023-06-10T03:05:29;22.40;99.90
23289;DHT22;11813;50.834;4.280;2023-06-10T03:07:55;22.40;99.90
23289;DHT22;11813;50.834;4.280;2023-06-10T03:10:20;22.30;99.90
23289;DHT22;11813;50.834;4.280;2023-06-10T03:12:46;22.20;99.90
23289;DHT22;11813;50.834;4.280;2023-06-10T03:15:12;22.20;99.90
23289;DHT22;11813;50.834;4.280;2023-06-10T03:17:37;22.20;99.90
23289;DHT22;11813;50.834;4.280;2023-06-10T03:20:03;22.20;99.90
23289;DHT22;11813;50.834;4.280;2023-06-10T03:22:34;22.20;99.90
23289;DHT22;11813;50.834;4.280;2023-06-10T03:25:00;22.20;99.90
23289;DHT22;11813;50.834;4.280;2023-06-10T03:27:25;22.10;99.90
23289;DHT22;11813;50.834;4.280;2023-06-10T03:29:52;22.00;99.90
23289;DHT22;11813;50.834;4.280;2023-06-10T03:32:17;21.90;99.90
23289;DHT22;11813;50.834;4.280;2023-06-10T03:34:43;21.90;99.90
23289;DHT22;11813;50.834;4.280;2023-06-10T03:37:10;21.80;99.90
23289;DHT22;11813;50.834;4.280;2023-06-10T03:39:36;21.70;99.90
23289;DHT22;11813;50.834;4.280;2023-06-10T03:42:01;21.80;99.90
23289;DHT22;11813;50.834;4.280;2023-06-10T03:44:27;21.80;99.90
23289;DHT22;11813;50.834;4.280;2023-06-10T03:46:53;21.80;99.90
23289;DHT22;11813;50.834;4.280;2023-06-10T03:49:19;21.80;99.90
23289;DHT22;11813;50.834;4.280;2023-06-10T03:51:45;21.70;99.90
23289;DHT22;11813;50.834;4.280;2023-06-10T03:54:11;21.60;99.90
23289;DHT22;11813;50.834;4.280;2023-06-10T03:56:36;21.70;99.90
23289;DHT22;11813;50.834;4.280;2023-06-10T03:59:02;21.80;99.90
23289;DHT22;11813;50.834;4.280;2023-06-10T04:01:28;21.80;99.90
23289;DHT22;11813;50.834;4.280;2023-06-10T04:03:53;21.60;99.90
23289;DHT22;11813;50.834;4.280;2023-06-10T04:06:20;21.80;99.90
23289;DHT22;11813;50.834;4.280;2023-06-10T04:08:46;21.70;99.90
23289;DHT22;11813;50.834;4.280;2023-06-10T04:11:13;21.60;99.90
23289;DHT22;11813;50.834;4.280;2023-06-10T04:13:38;21.70;99.90
23289;DHT22;11813;50.834;4.280;2023-06-10T04:16:04;21.70;99.90
23289;DHT22;11813;50.834;4.280;2023-06-10T04:18:29;21.70;99.90
23289;DHT22;11813;50.834;4.280;2023-06-10T04:20:55;21.60;99.90
23289;DHT22;11813;50.834;4.280;2023-06-10T04:23:22;21.60;99.90
23289;DHT22;11813;50.834;4.280;2023-06-10T04:25:48;21.60;99.90
23289;DHT22;11813;50.834;4.280;2023-06-10T04:28:14;21.50;99.90
23289;DHT22;11813;50.834;4.280;2023-06-10T04:30:39;21.50;99.90
23289;DHT22;11813;50.834;4.280;2023-06-10T04:33:07;21.50;99.90
23289;DHT22;11813;50.834;4.280;2023-06-10T04:35:34;21.50;99.90
23289;DHT22;11813;50.834;4.280;2023-06-10T04:38:00;21.60;99.90
23289;DHT22;11813;50.834;4.280;2023-06-10T04:40:28;21.60;99.90
23289;DHT22;11813;50.834;4.280;2023-06-10T04:42:53;21.50;99.90
23289;DHT22;11813;50.834;4.280;2023-06-10T04:45:19;21.60;99.90
23289;DHT22;11813;50.834;4.280;2023-06-10T04:47:44;21.70;99.90
23289;DHT22;11813;50.834;4.280;2023-06-10T04:50:10;21.80;99.90
23289;DHT22;11813;50.834;4.280;2023-06-10T04:52:36;21.80;99.90
23289;DHT22;11813;50.834;4.280;2023-06-10T04:55:01;21.60;99.90
23289;DHT22;11813;50.834;4.280;2023-06-10T04:57:27;21.60;99.90
23289;DHT22;11813;50.834;4.280;2023-06-10T04:59:53;21.60;99.90
23289;DHT22;11813;50.834;4.280;2023-06-10T05:02:18;21.70;99.90
23289;DHT22;11813;50.834;4.280;2023-06-10T05:04:44;21.70;99.90
23289;DHT22;11813;50.834;4.280;2023-06-10T05:07:10;21.80;99.90
23289;DHT22;11813;50.834;4.280;2023-06-10T05:09:35;21.70;99.90
23289;DHT22;11813;50.834;4.280;2023-06-10T05:12:01;21.70;99.90
23289;DHT22;11813;50.834;4.280;2023-06-10T05:14:28;21.60;99.90
23289;DHT22;11813;50.834;4.280;2023-06-10T05:16:53;21.80;99.90
23289;DHT22;11813;50.834;4.280;2023-06-10T05:19:19;21.80;99.90
23289;DHT22;11813;50.834;4.280;2023-06-10T05:21:45;21.90;99.90
23289;DHT22;11813;50.834;4.280;2023-06-10T05:24:11;22.00;99.90
23289;DHT22;11813;50.834;4.280;2023-06-10T05:26:36;22.10;99.90
23289;DHT22;11813;50.834;4.280;2023-06-10T05:29:08;22.10;99.90
23289;DHT22;11813;50.834;4.280;2023-06-10T05:31:36;22.20;99.90
23289;DHT22;11813;50.834;4.280;2023-06-10T05:34:02;22.30;99.90
23289;DHT22;11813;50.834;4.280;2023-06-10T05:36:28;22.40;99.90
23289;DHT22;11813;50.834;4.280;2023-06-10T05:38:53;22.40;99.90
23289;DHT22;11813;50.834;4.280;2023-06-10T05:41:19;22.40;99.90
23289;DHT22;11813;50.834;4.280;2023-06-10T05:43:45;22.70;99.90
23289;DHT22;11813;50.834;4.280;2023-06-10T05:46:11;22.80;99.90
23289;DHT22;11813;50.834;4.280;2023-06-10T05:48:36;22.90;99.90
23289;DHT22;11813;50.834;4.280;2023-06-10T05:51:02;23.00;99.90
23289;DHT22;11813;50.834;4.280;2023-06-10T05:53:27;23.00;99.90
23289;DHT22;11813;50.834;4.280;2023-06-10T05:55:53;23.20;99.90
23289;DHT22;11813;50.834;4.280;2023-06-10T05:58:23;23.30;99.90
23289;DHT22;11813;50.834;4.280;2023-06-10T06:00:49;23.30;99.90
23289;DHT22;11813;50.834;4.280;2023-06-10T06:03:14;23.50;99.90
23289;DHT22;11813;50.834;4.280;2023-06-10T06:05:40;23.50;99.90
23289;DHT22;11813;50.834;4.280;2023-06-10T06:08:06;23.50;99.90
23289;DHT22;11813;50.834;4.280;2023-06-10T06:10:31;23.60;99.90
23289;DHT22;11813;50.834;4.280;2023-06-10T06:12:57;23.80;99.90
23289;DHT22;11813;50.834;4.280;2023-06-10T06:15:23;23.90;99.90
23289;DHT22;11813;50.834;4.280;2023-06-10T06:17:48;24.00;99.90
23289;DHT22;11813;50.834;4.280;2023-06-10T06:20:14;24.20;99.90
23289;DHT22;11813;50.834;4.280;2023-06-10T06:22:40;24.20;99.90
23289;DHT22;11813;50.834;4.280;2023-06-10T06:25:06;24.30;99.90
23289;DHT22;11813;50.834;4.280;2023-06-10T06:27:31;24.40;99.90
23289;DHT22;11813;50.834;4.280;2023-06-10T06:29:57;24.40;99.90
23289;DHT22;11813;50.834;4.280;2023-06-10T06:32:22;24.60;99.90
23289;DHT22;11813;50.834;4.280;2023-06-10T06:34:50;24.70;99.90
23289;DHT22;11813;50.834;4.280;2023-06-10T06:37:23;24.60;99.90
23289;DHT22;11813;50.834;4.280;2023-06-10T06:39:52;24.70;99.90
23289;DHT22;11813;50.834;4.280;2023-06-10T06:42:18;24.80;99.90
23289;DHT22;11813;50.834;4.280;2023-06-10T06:44:44;24.80;99.90
23289;DHT22;11813;50.834;4.280;2023-06-10T06:47:10;24.80;99.90
23289;DHT22;11813;50.834;4.280;2023-06-10T06:49:36;25.00;99.90
23289;DHT22;11813;50.834;4.280;2023-06-10T06:52:01;25.10;99.90
23289;DHT22;11813;50.834;4.280;2023-06-10T06:54:27;25.20;99.90
23289;DHT22;11813;50.834;4.280;2023-06-10T06:56:53;25.20;99.90
23289;DHT22;11813;50.834;4.280;2023-06-10T06:59:18;25.20;99.90
23289;DHT22;11813;50.834;4.280;2023-06-10T07:01:45;25.30;99.90
23289;DHT22;11813;50.834;4.280;2023-06-10T07:04:11;25.40;99.90
23289;DHT22;11813;50.834;4.280;2023-06-10T07:06:37;25.50;99.90
23289;DHT22;11813;50.834;4.280;2023-06-10T07:09:04;25.50;99.90
23289;DHT22;11813;50.834;4.280;2023-06-10T07:11:30;25.50;99.90
23289;DHT22;11813;50.834;4.280;2023-06-10T07:13:56;25.70;99.90
23289;DHT22;11813;50.834;4.280;2023-06-10T07:16:22;25.70;99.90
23289;DHT22;11813;50.834;4.280;2023-06-10T07:18:47;25.80;99.90
23289;DHT22;11813;50.834;4.280;2023-06-10T07:21:13;25.90;99.90
23289;DHT22;11813;50.834;4.280;2023-06-10T07:23:42;25.90;99.90
23289;DHT22;11813;50.834;4.280;2023-06-10T07:26:08;26.00;99.90
23289;DHT22;11813;50.834;4.280;2023-06-10T07:28:37;26.20;99.90
23289;DHT22;11813;50.834;4.280;2023-06-10T07:31:03;26.20;99.90
23289;DHT22;11813;50.834;4.280;2023-06-10T07:33:29;26.30;99.90
23289;DHT22;11813;50.834;4.280;2023-06-10T07:35:54;26.40;99.90
23289;DHT22;11813;50.834;4.280;2023-06-10T07:38:20;26.40;99.90
23289;DHT22;11813;50.834;4.280;2023-06-10T07:40:46;26.40;99.90
23289;DHT22;11813;50.834;4.280;2023-06-10T07:43:11;26.50;99.90
23289;DHT22;11813;50.834;4.280;2023-06-10T07:45:39;26.40;99.90
23289;DHT22;11813;50.834;4.280;2023-06-10T07:48:05;26.50;99.90
23289;DHT22;11813;50.834;4.280;2023-06-10T07:50:30;26.50;99.90
23289;DHT22;11813;50.834;4.280;2023-06-10T07:52:56;26.70;99.90
23289;DHT22;11813;50.834;4.280;2023-06-10T07:55:21;26.70;99.90
23289;DHT22;11813;50.834;4.280;2023-06-10T07:57:47;26.70;99.90
23289;DHT22;11813;50.834;4.280;2023-06-10T08:00:13;26.70;99.90
23289;DHT22;11813;50.834;4.280;2023-06-10T08:02:39;26.60;99.90
23289;DHT22;11813;50.834;4.280;2023-06-10T08:05:05;26.70;99.90
23289;DHT22;11813;50.834;4.280;2023-06-10T08:07:30;26.80;99.90
23289;DHT22;11813;50.834;4.280;2023-06-10T08:09:57;26.90;99.90
23289;DHT22;11813;50.834;4.280;2023-06-10T08:12:22;27.00;99.90
23289;DHT22;11813;50.834;4.280;2023-06-10T08:14:48;27.10;99.90
23289;DHT22;11813;50.834;4.280;2023-06-10T08:17:14;27.10;99.90
23289;DHT22;11813;50.834;4.280;2023-06-10T08:19:39;27.10;99.90
23289;DHT22;11813;50.834;4.280;2023-06-10T08:22:05;27.10;99.90
23289;DHT22;11813;50.834;4.280;2023-06-10T08:24:31;27.20;99.90
23289;DHT22;11813;50.834;4.280;2023-06-10T08:26:56;27.30;99.90
23289;DHT22;11813;50.834;4.280;2023-06-10T08:29:23;27.40;99.90
23289;DHT22;11813;50.834;4.280;2023-06-10T08:31:48;27.50;99.90
23289;DHT22;11813;50.834;4.280;2023-06-10T08:34:14;27.50;99.90
23289;DHT22;11813;50.834;4.280;2023-06-10T08:36:40;27.60;99.90
23289;DHT22;11813;50.834;4.280;2023-06-10T08:39:05;27.70;99.90
23289;DHT22;11813;50.834;4.280;2023-06-10T08:41:35;27.80;99.90
23289;DHT22;11813;50.834;4.280;2023-06-10T08:44:12;27.80;99.90
23289;DHT22;11813;50.834;4.280;2023-06-10T08:46:45;28.00;99.90
23289;DHT22;11813;50.834;4.280;2023-06-10T08:49:17;28.10;99.90
23289;DHT22;11813;50.834;4.280;2023-06-10T08:51:43;28.00;99.90
23289;DHT22;11813;50.834;4.280;2023-06-10T08:54:18;28.00;99.90
23289;DHT22;11813;50.834;4.280;2023-06-10T08:56:50;28.00;99.90
23289;DHT22;11813;50.834;4.280;2023-06-10T08:59:17;28.10;99.90
23289;DHT22;11813;50.834;4.280;2023-06-10T09:01:44;28.10;99.90
23289;DHT22;11813;50.834;4.280;2023-06-10T09:04:10;28.20;99.90
23289;DHT22;11813;50.834;4.280;2023-06-10T09:06:36;28.30;99.90
23289;DHT22;11813;50.834;4.280;2023-06-10T09:09:03;28.40;99.90
23289;DHT22;11813;50.834;4.280;2023-06-10T09:11:29;28.50;99.90
23289;DHT22;11813;50.834;4.280;2023-06-10T09:13:55;28.40;99.90
23289;DHT22;11813;50.834;4.280;2023-06-10T09:16:21;28.40;99.90
23289;DHT22;11813;50.834;4.280;2023-06-10T09:18:46;28.50;99.90
23289;DHT22;11813;50.834;4.280;2023-06-10T09:21:12;28.60;99.90
23289;DHT22;11813;50.834;4.280;2023-06-10T09:23:37;28.70;99.90
23289;DHT22;11813;50.834;4.280;2023-06-10T09:26:08;28.70;99.90
23289;DHT22;11813;50.834;4.280;2023-06-10T09:28:35;28.80;99.90
23289;DHT22;11813;50.834;4.280;2023-06-10T09:31:05;29.00;99.90
23289;DHT22;11813;50.834;4.280;2023-06-10T09:33:32;29.10;99.90
23289;DHT22;11813;50.834;4.280;2023-06-10T09:36:01;29.30;99.90
23289;DHT22;11813;50.834;4.280;2023-06-10T09:38:32;29.40;99.90
23289;DHT22;11813;50.834;4.280;2023-06-10T09:40:58;29.30;99.90
23289;DHT22;11813;50.834;4.280;2023-06-10T09:43:41;29.40;99.90
23289;DHT22;11813;50.834;4.280;2023-06-10T09:46:14;29.50;99.90
23289;DHT22;11813;50.834;4.280;2023-06-10T09:48:45;29.70;99.90
23289;DHT22;11813;50.834;4.280;2023-06-10T09:51:12;29.70;99.90
23289;DHT22;11813;50.834;4.280;2023-06-10T09:53:38;29.70;99.90
23289;DHT22;11813;50.834;4.280;2023-06-10T09:56:04;29.70;99.90
23289;DHT22;11813;50.834;4.280;2023-06-10T09:58:37;29.80;99.90
23289;DHT22;11813;50.834;4.280;2023-06-10T10:01:08;29.90;99.90
23289;DHT22;11813;50.834;4.280;2023-06-10T10:03:34;29.90;99.90
23289;DHT22;11813;50.834;4.280;2023-06-10T10:06:09;30.00;99.90
23289;DHT22;11813;50.834;4.280;2023-06-10T10:08:34;30.10;99.90
23289;DHT22;11813;50.834;4.280;2023-06-10T10:11:01;30.10;99.90
23289;DHT22;11813;50.834;4.280;2023-06-10T10:13:28;30.00;99.90
23289;DHT22;11813;50.834;4.280;2023-06-10T10:15:56;30.00;99.90
23289;DHT22;11813;50.834;4.280;2023-06-10T10:18:27;30.10;99.90
23289;DHT22;11813;50.834;4.280;2023-06-10T10:20:56;30.20;99.90
23289;DHT22;11813;50.834;4.280;2023-06-10T10:23:29;30.30;99.90
23289;DHT22;11813;50.834;4.280;2023-06-10T10:25:57;30.20;99.90
23289;DHT22;11813;50.834;4.280;2023-06-10T10:28:26;30.40;99.90
23289;DHT22;11813;50.834;4.280;2023-06-10T10:30:59;30.50;99.90
23289;DHT22;11813;50.834;4.280;2023-06-10T10:33:40;30.50;99.90
23289;DHT22;11813;50.834;4.280;2023-06-10T10:36:07;30.50;99.90
23289;DHT22;11813;50.834;4.280;2023-06-10T10:38:34;30.70;99.90
23289;DHT22;11813;50.834;4.280;2023-06-10T10:41:00;30.70;99.90
23289;DHT22;11813;50.834;4.280;2023-06-10T10:43:28;30.60;99.90
23289;DHT22;11813;50.834;4.280;2023-06-10T10:46:01;30.70;99.90
23289;DHT22;11813;50.834;4.280;2023-06-10T10:48:33;30.80;99.90
23289;DHT22;11813;50.834;4.280;2023-06-10T10:50:58;31.00;99.90
23289;DHT22;11813;50.834;4.280;2023-06-10T10:53:24;30.80;99.90
23289;DHT22;11813;50.834;4.280;2023-06-10T10:56:13;30.90;99.90
23289;DHT22;11813;50.834;4.280;2023-06-10T10:58:39;31.00;99.90
23289;DHT22;11813;50.834;4.280;2023-06-10T11:01:12;31.30;99.80
23289;DHT22;11813;50.834;4.280;2023-06-10T11:03:46;31.50;99.80
23289;DHT22;11813;50.834;4.280;2023-06-10T11:06:16;31.40;99.00
23289;DHT22;11813;50.834;4.280;2023-06-10T11:11:23;31.50;98.70
23289;DHT22;11813;50.834;4.280;2023-06-10T11:16:39;31.40;96.70
23289;DHT22;11813;50.834;4.280;2023-06-10T11:19:05;31.40;96.80
23289;DHT22;11813;50.834;4.280;2023-06-10T11:21:31;31.50;97.90
23289;DHT22;11813;50.834;4.280;2023-06-10T11:23:58;31.60;97.70
23289;DHT22;11813;50.834;4.280;2023-06-10T11:31:23;32.10;96.40
23289;DHT22;11813;50.834;4.280;2023-06-10T11:33:54;32.30;96.80
23289;DHT22;11813;50.834;4.280;2023-06-10T11:36:20;32.50;97.20
23289;DHT22;11813;50.834;4.280;2023-06-10T11:38:46;32.70;97.10
23289;DHT22;11813;50.834;4.280;2023-06-10T11:41:12;32.80;97.70
23289;DHT22;11813;50.834;4.280;2023-06-10T11:43:45;32.90;97.20
23289;DHT22;11813;50.834;4.280;2023-06-10T11:46:15;33.10;97.00
23289;DHT22;11813;50.834;4.280;2023-06-10T11:48:51;33.40;96.20
23289;DHT22;11813;50.834;4.280;2023-06-10T11:51:17;33.30;95.10
23289;DHT22;11813;50.834;4.280;2023-06-10T11:53:47;33.20;95.40
23289;DHT22;11813;50.834;4.280;2023-06-10T11:56:13;33.20;96.40
23289;DHT22;11813;50.834;4.280;2023-06-10T11:58:43;33.00;95.90
23289;DHT22;11813;50.834;4.280;2023-06-10T12:01:10;33.20;95.90
23289;DHT22;11813;50.834;4.280;2023-06-10T12:03:36;33.20;96.80
23289;DHT22;11813;50.834;4.280;2023-06-10T12:06:06;33.50;97.10
23289;DHT22;11813;50.834;4.280;2023-06-10T12:08:32;33.70;95.80
23289;DHT22;11813;50.834;4.280;2023-06-10T12:10:59;33.60;96.50
23289;DHT22;11813;50.834;4.280;2023-06-10T12:13:26;33.60;95.30
23289;DHT22;11813;50.834;4.280;2023-06-10T12:15:52;33.30;94.90
23289;DHT22;11813;50.834;4.280;2023-06-10T12:18:24;33.10;95.80
23289;DHT22;11813;50.834;4.280;2023-06-10T12:20:50;33.30;95.30
23289;DHT22;11813;50.834;4.280;2023-06-10T12:23:19;33.20;95.20
23289;DHT22;11813;50.834;4.280;2023-06-10T12:25:53;33.30;95.60
23289;DHT22;11813;50.834;4.280;2023-06-10T12:28:26;33.50;96.40
23289;DHT22;11813;50.834;4.280;2023-06-10T12:31:06;33.90;95.40
23289;DHT22;11813;50.834;4.280;2023-06-10T12:33:33;34.40;97.00
23289;DHT22;11813;50.834;4.280;2023-06-10T12:35:58;34.60;94.90
23289;DHT22;11813;50.834;4.280;2023-06-10T12:38:25;34.50;93.80
23289;DHT22;11813;50.834;4.280;2023-06-10T12:40:53;34.60;94.70
23289;DHT22;11813;50.834;4.280;2023-06-10T12:43:22;34.80;95.50
23289;DHT22;11813;50.834;4.280;2023-06-10T12:45:50;34.60;94.60
23289;DHT22;11813;50.834;4.280;2023-06-10T12:48:23;34.80;93.40
23289;DHT22;11813;50.834;4.280;2023-06-10T12:50:53;34.50;94.30
23289;DHT22;11813;50.834;4.280;2023-06-10T12:53:19;34.30;93.90
23289;DHT22;11813;50.834;4.280;2023-06-10T12:55:46;34.00;94.20
23289;DHT22;11813;50.834;4.280;2023-06-10T12:58:12;34.10;94.10
23289;DHT22;11813;50.834;4.280;2023-06-10T13:00:39;34.50;95.00
23289;DHT22;11813;50.834;4.280;2023-06-10T13:03:05;34.70;94.90
23289;DHT22;11813;50.834;4.280;2023-06-10T13:05:31;34.80;94.30
23289;DHT22;11813;50.834;4.280;2023-06-10T13:07:58;35.10;94.00
23289;DHT22;11813;50.834;4.280;2023-06-10T13:10:24;35.40;94.10
23289;DHT22;11813;50.834;4.280;2023-06-10T13:12:50;35.50;93.80
23289;DHT22;11813;50.834;4.280;2023-06-10T13:15:16;35.30;92.60
23289;DHT22;11813;50.834;4.280;2023-06-10T13:17:43;35.20;94.30
23289;DHT22;11813;50.834;4.280;2023-06-10T13:20:09;35.10;93.10
23289;DHT22;11813;50.834;4.280;2023-06-10T13:22:35;35.10;93.60
23289;DHT22;11813;50.834;4.280;2023-06-10T13:25:05;35.40;93.60
23289;DHT22;11813;50.834;4.280;2023-06-10T13:27:35;35.60;94.20
23289;DHT22;11813;50.834;4.280;2023-06-10T13:30:00;35.50;92.70
23289;DHT22;11813;50.834;4.280;2023-06-10T13:32:26;35.10;93.40
23289;DHT22;11813;50.834;4.280;2023-06-10T13:34:52;35.10;93.30
23289;DHT22;11813;50.834;4.280;2023-06-10T13:37:19;34.70;92.90
23289;DHT22;11813;50.834;4.280;2023-06-10T13:39:45;34.60;93.80
23289;DHT22;11813;50.834;4.280;2023-06-10T13:42:17;34.60;94.70
23289;DHT22;11813;50.834;4.280;2023-06-10T13:44:42;34.90;93.20
23289;DHT22;11813;50.834;4.280;2023-06-10T13:47:08;34.90;93.70
23289;DHT22;11813;50.834;4.280;2023-06-10T13:49:33;35.20;92.50
23289;DHT22;11813;50.834;4.280;2023-06-10T13:51:59;35.10;91.70
23289;DHT22;11813;50.834;4.280;2023-06-10T13:54:24;35.10;94.10
23289;DHT22;11813;50.834;4.280;2023-06-10T13:56:50;35.40;92.90
23289;DHT22;11813;50.834;4.280;2023-06-10T13:59:16;35.70;92.90
23289;DHT22;11813;50.834;4.280;2023-06-10T14:01:41;35.90;93.80
23289;DHT22;11813;50.834;4.280;2023-06-10T14:04:07;35.80;91.80
23289;DHT22;11813;50.834;4.280;2023-06-10T14:06:33;35.50;91.90
23289;DHT22;11813;50.834;4.280;2023-06-10T14:08:59;35.00;92.10
23289;DHT22;11813;50.834;4.280;2023-06-10T14:11:25;34.60;92.00
23289;DHT22;11813;50.834;4.280;2023-06-10T14:13:51;34.20;92.70
23289;DHT22;11813;50.834;4.280;2023-06-10T14:16:17;34.20;93.30
23289;DHT22;11813;50.834;4.280;2023-06-10T14:18:42;33.80;92.70
23289;DHT22;11813;50.834;4.280;2023-06-10T14:21:08;33.60;91.70
23289;DHT22;11813;50.834;4.280;2023-06-10T14:23:33;33.50;93.00
23289;DHT22;11813;50.834;4.280;2023-06-10T14:25:59;33.90;92.70
23289;DHT22;11813;50.834;4.280;2023-06-10T14:28:26;34.30;93.00
23289;DHT22;11813;50.834;4.280;2023-06-10T14:30:53;34.70;91.90
23289;DHT22;11813;50.834;4.280;2023-06-10T14:33:18;34.60;92.60
23289;DHT22;11813;50.834;4.280;2023-06-10T14:35:44;34.30;92.00
23289;DHT22;11813;50.834;4.280;2023-06-10T14:38:09;34.40;92.50
23289;DHT22;11813;50.834;4.280;2023-06-10T14:40:35;34.70;94.00
23289;DHT22;11813;50.834;4.280;2023-06-10T14:43:01;35.20;91.90
23289;DHT22;11813;50.834;4.280;2023-06-10T14:45:29;35.30;91.60
23289;DHT22;11813;50.834;4.280;2023-06-10T14:47:55;35.70;92.00
23289;DHT22;11813;50.834;4.280;2023-06-10T14:50:21;36.00;91.80
23289;DHT22;11813;50.834;4.280;2023-06-10T14:52:46;36.20;90.80
23289;DHT22;11813;50.834;4.280;2023-06-10T14:55:12;36.20;91.00
23289;DHT22;11813;50.834;4.280;2023-06-10T14:57:37;36.40;91.00
23289;DHT22;11813;50.834;4.280;2023-06-10T15:00:03;36.60;90.40
23289;DHT22;11813;50.834;4.280;2023-06-10T15:02:29;36.50;89.40
23289;DHT22;11813;50.834;4.280;2023-06-10T15:04:55;36.20;90.30
23289;DHT22;11813;50.834;4.280;2023-06-10T15:07:20;36.10;92.10
23289;DHT22;11813;50.834;4.280;2023-06-10T15:09:46;36.10;90.30
23289;DHT22;11813;50.834;4.280;2023-06-10T15:12:11;36.10;90.40
23289;DHT22;11813;50.834;4.280;2023-06-10T15:14:37;36.10;90.30
23289;DHT22;11813;50.834;4.280;2023-06-10T15:17:03;36.00;90.40
23289;DHT22;11813;50.834;4.280;2023-06-10T15:19:29;36.20;90.40
23289;DHT22;11813;50.834;4.280;2023-06-10T15:21:54;36.30;90.20
23289;DHT22;11813;50.834;4.280;2023-06-10T15:24:20;36.70;90.50
23289;DHT22;11813;50.834;4.280;2023-06-10T15:26:45;36.70;89.20
23289;DHT22;11813;50.834;4.280;2023-06-10T15:29:11;36.80;89.60
23289;DHT22;11813;50.834;4.280;2023-06-10T15:31:37;36.50;88.20
23289;DHT22;11813;50.834;4.280;2023-06-10T15:34:03;36.50;90.90
23289;DHT22;11813;50.834;4.280;2023-06-10T15:36:29;36.80;89.10
23289;DHT22;11813;50.834;4.280;2023-06-10T15:39:01;37.00;89.60
23289;DHT22;11813;50.834;4.280;2023-06-10T15:41:28;37.10;89.30